• Join FlightAware (Why Join?)
  • Login
  • US Flag 
03:53PM EST


 

Airport Tracker/Info


-or-


 

Live Flight TrackerFlight Track Log ✈ NRL951 ✈ 11-Sep-2013 ✈ CYVO - CYMX

Flight Track Log - Related Links

Times and Time Zones

All times are in EDT time to prevent confusion due to time zone crossing. See the NRL951 flight status page for this flight to view local times or setup timezone preferences in your user account.

Time Position Orientation Groundspeed Altitude Reporting Facility
EDT Latitude Longitude Course Direction KTS MPH feet Rate Location/Type
05:34PM 47.7167 -77.4333 131° Southeast 360 414 14,200  Level Montreal Center
05:35PM 47.6239 -77.0654 134° Southeast  Level Estimated
05:35PM 47.6167 -77.3667 156° South 350 403 16,000  Level Montreal Center
05:36PM 47.5637 -76.9618 131° Southeast  Level FlightAware Approximate
05:36PM 47.5167 -77.3167 161° South 370 426 18,500  Level Montreal Center
05:37PM 47.5035 -76.8584 131° Southeast  Level FlightAware Approximate
05:37PM 47.4333 -77.2000 137° Southeast 390 449 20,800  Level Montreal Center
05:38PM 47.4432 -76.7553 131° Southeast  Level FlightAware Approximate
05:38PM 47.3833 -77.0500 116° Southeast 420 483 22,400  Level Montreal Center
05:39PM 47.3828 -76.6524 131° Southeast  Level FlightAware Approximate
05:39PM 47.3167 -76.9000 123° Southeast 430 495 24,100  Level Montreal Center
05:40PM 47.3223 -76.5498 131° Southeast  Level FlightAware Approximate
05:40PM 47.2333 -76.7500 129° Southeast 440 506 25,900  Level Montreal Center
05:41PM 47.1667 -76.5833 120° Southeast 460 529 26,900 1,140 Climbing Montreal Center
05:42PM 47.1000 -76.4333 123° Southeast 470 541 28,200 1,680 Climbing Montreal Center
05:43PM 47.0333 -76.2667 120° Southeast 470 541 30,300 1,320 Climbing Montreal Center
05:44PM 46.9667 -76.1167 123° Southeast 460 529 30,900 300 Climbing Montreal Center
05:45PM 46.8833 -75.9500 126° Southeast 460 529 31,000  Climbing Montreal Center
05:46PM 46.8167 -75.8000 123° Southeast 450 518 31,000 -600 Level Montreal Center
05:47PM 46.7500 -75.6500 123° Southeast 440 506 29,800 -1,620 Descending Montreal Center
05:48PM 46.6833 -75.5000 123° Southeast 440 506 27,800 -1,800 Descending Montreal Center
05:49PM 46.6000 -75.3833 136° Southeast 400 460 26,200 -2,160 Descending Montreal Center
05:50PM 46.5333 -75.2667 130° Southeast 410 472 23,500 -2,400 Descending Montreal Center
05:51PM 46.4500 -75.1333 132° Southeast 390 449 21,500 -1,980 Descending Montreal Center
05:52PM 46.3833 -75.0500 139° Southeast 380 437 19,600 -2,100 Descending Montreal Center
05:53PM 46.3167 -74.9167 126° Southeast 370 426 17,300 -2,400 Descending Montreal Center
05:54PM 46.2333 -74.8000 136° Southeast 380 437 14,900 -2,160 Descending Montreal Center
05:55PM 46.1667 -74.7167 139° Southeast 360 414 13,000 -1,860 Descending Montreal Center
05:56PM 46.1000 -74.5833 126° Southeast 350 403 11,200 -1,680 Descending Montreal Center
05:57PM 46.0333 -74.5000 139° Southeast 330 380 9,700 -1,560 Descending Montreal Center
05:58PM 45.9667 -74.4167 139° Southeast 310 357 8,100 -1,560 Descending Montreal Center
05:59PM 45.9167 -74.3333 131° Southeast 290 334 6,600 -1,560 Descending Montreal Center
06:00PM 45.9000 -74.2167 102° East 310 357 5,000 -1,500 Descending Montreal Center
06:01PM 45.8833 -74.0833 100° East 300 345 3,600 -1,020 Descending Montreal Center
06:02PM 45.8667 -74.0000 106° East 290 334 3,000 -300 Descending Montreal Center
06:03PM 45.8333 -73.8667 110° East 280 322 3,000 -180 Level Montreal Center
06:04PM 45.7667 -73.8500 170° South 200 230 2,700 -600 Descending Montreal Center
06:05PM 45.7333 -73.9000 226° Southwest 160 184 1,800 -840 Descending Montreal Center
06:06PM 45.7000 -73.9333 215° Southwest 150 173 1,100 -660 Descending Montreal Center
06:07PM 45.6833 -73.9833 245° Southwest 130 150 500 -420 Descending Montreal Center
06:08PM 45.6500 -74.0000 199° South 120 138 300 -240 Descending Montreal Center